Abbott, MS

1:16 PM CDT on August 29, 2014 (GMT -0500)
WestWood II | Change Station
CLOSE
Current Station
Personal Weather Station
Location: West Point, MS
Elevation: 240 ft
Nearby Weather Stations

Elev 240 ft 33.61 °N, 88.68 °W | Updated 29 seconds ago

Partly Cloudy
Partly Cloudy
91.6 °F
Feels Like 94 °F
N
0.0
Wind Variable Wind from East
Gusts 2.2 mph

Today
High -- | Low -- °F
--% Chance of Precip.
Yesterday
High -- | Low -- °F
Precip. -- in
6:26 AM 7:23 PM
Waxing Crescent, 15% visible
Pressure 30.01 in
Visibility 10.0 miles
Clouds Few 20000 ft
Heat Index 94 °F
Dew Point 64 °F
Humidity 41%
Rainfall 0.00 in
Snow Depth Not available.
UV 10 out of 12
Pollen 9.60 out of 12
Air Quality Not available.
Flu Activity Not available.
METAR KCBM 291758Z AUTO VRB02KT 10SM FEW200 33/17 A3001 RMK AO2 CIG 060 RWY31C SLP163 T03270171 10329 20200 58003 $

More Conditions Fewer Conditions

Pressure 30.01 in
Visibility 10.0 miles
Clouds Few 20000 ft
Heat Index 94 °F
Dew Point 64 °F
Humidity 41%
Rainfall 0.00 in
Snow Depth Not available.
UV 10 out of 12
Pollen 9.60 out of 12
Air Quality Not available.
Flu Activity Not available.
METAR KCBM 291758Z AUTO VRB02KT 10SM FEW200 33/17 A3001 RMK AO2 CIG 060 RWY31C SLP163 T03270171 10329 20200 58003 $

More Conditions Fewer Conditions

10-Day Weather Forecast

Almanac

Astronomy

Aug. 29, 2014 Rise Set
Actual Time 6:26 AM CDT 7:23 PM CDT
Civil Twilight 6:01 AM CDT 7:49 PM CDT
Nautical Twilight 5:30 AM CDT 8:19 PM CDT
Astronomical Twilight 4:59 AM CDT 8:50 PM CDT
Moon 10:02 AM CDT 9:35 PM CDT
Length of Visible Light 13h 48m
Length of Day
12h 57m
Tomorrow will be 1m 59s shorter.
Waxing Crescent, 15% of the Moon is Illuminated
Today
Waxing Crescent
Sep 2
First Quarter
Sep 8
Full
Sep 15
Last Quarter
Sep 24
New

Today's Extremes

State Highs State Lows

Community

WunderPhotos

Upload Photos

1,748,309 photos uploaded!

Nearby

Snow Depth

Station Depth Elevation
No new snow has been reported.

Earthquake Activity

City Distance Mag. Time & Date
No recent earthquake activity has been reported nearby.
Minimum magnitude displayed is 2.5.

Coastal Water Temperatures

Place Temperature
No Stations Reporting

Nearby Weather Stations